Terminal Aerodrome Forecast
Issued by NWS

Home | Current Version | Previous Version | Text Only | Print | Product List | Glossary On
Versions: 1 2 3 4 5 6 7 8 9 10 11 12 13 14
000
FTUS44 KCRP 020500
TAFLRD
TAF
KLRD 020540Z 0206/0306 16008KT P6SM BKN120
      TEMPO 0206/0207 -RA BKN120
     FM021200 05005KT P6SM VCSH BKN040
     FM021600 06008KT P6SM VCTS BKN040CB
     FM030300 11007KT P6SM SCT070=

USA.gov is the U.S. government's official web portal to all federal, state and local government web resources and services.